createdAt,value
2022-11-09T00:01:47.747Z,99699.31
2022-11-09T00:07:09.660Z,99703.31
2022-11-09T00:12:31.778Z,99699.06
2022-11-09T00:17:53.688Z,99695.59
2022-11-09T00:23:17.035Z,99700.94
2022-11-09T00:28:39.971Z,99700.69
2022-11-09T00:34:01.809Z,99700.69
2022-11-09T00:39:24.450Z,99704.41
2022-11-09T00:44:46.011Z,99704.69
2022-11-09T00:50:08.493Z,99703.63
2022-11-09T00:55:31.640Z,99700.69
2022-11-09T01:00:55.192Z,99702.03
2022-11-09T01:06:24.357Z,99713.81
2022-11-09T01:11:46.310Z,99704.16
2022-11-09T01:17:08.573Z,99710.63
2022-11-09T01:22:30.771Z,99710.63
2022-11-09T01:27:52.671Z,99711.69
2022-11-09T01:33:14.991Z,99709.56
2022-11-09T01:38:38.781Z,99719.69
2022-11-09T01:44:20.652Z,99719.16
2022-11-09T01:49:56.270Z,99715.97
2022-11-09T01:55:24.831Z,99721.59
2022-11-09T02:00:50.297Z,99723.44
2022-11-09T02:06:15.369Z,99717.56
2022-11-09T02:11:38.689Z,99715.97
2022-11-09T02:17:00.650Z,99721.31
2022-11-09T02:22:22.829Z,99713.28
2022-11-09T02:27:45.930Z,99722.91
2022-11-09T02:33:08.309Z,99723.47
2022-11-09T02:38:30.348Z,99709.00
2022-11-09T02:43:54.571Z,99711.69
2022-11-09T02:49:16.880Z,99704.72
2022-11-09T02:54:38.789Z,99715.19
2022-11-09T03:00:01.348Z,99730.44
2022-11-09T03:05:27.929Z,99727.22
2022-11-09T03:10:50.568Z,99722.13
2022-11-09T03:16:13.969Z,99726.16
2022-11-09T03:21:36.510Z,99732.06
2022-11-09T03:26:58.608Z,99731.25
2022-11-09T03:32:21.230Z,99732.84
2022-11-09T03:37:43.248Z,99730.44
2022-11-09T03:43:05.428Z,99739.81
2022-11-09T03:48:28.852Z,99741.94
2022-11-09T03:53:50.528Z,99744.34
2022-11-09T03:59:12.419Z,99736.84
2022-11-09T04:04:34.628Z,99750.25
2022-11-09T04:09:56.171Z,99749.16
2022-11-09T04:15:18.748Z,99755.59
2022-11-09T04:20:41.200Z,99755.59
2022-11-09T04:26:03.149Z,99754.25
2022-11-09T04:31:28.090Z,99759.06
2022-11-09T04:36:50.410Z,99762.00
2022-11-09T04:42:12.328Z,99749.16
2022-11-09T04:47:34.320Z,99775.38
2022-11-09T04:52:56.290Z,99778.06
2022-11-09T04:58:23.797Z,99769.25
2022-11-09T05:03:47.003Z,99792.25
2022-11-09T05:09:08.990Z,99783.38
2022-11-09T05:14:30.902Z,99783.13
2022-11-09T05:19:55.921Z,99784.47
2022-11-09T05:25:18.192Z,99787.94
2022-11-09T05:30:39.954Z,99787.13
2022-11-09T05:36:02.292Z,99786.84
2022-11-09T05:41:24.513Z,99805.59
2022-11-09T05:46:46.750Z,99812.00
2022-11-09T05:52:08.910Z,99824.88
2022-11-09T05:57:31.370Z,99839.31
2022-11-09T06:02:53.592Z,99843.34
2022-11-09T06:08:16.271Z,99847.63
2022-11-09T06:13:38.271Z,99848.16
2022-11-09T06:19:01.975Z,99844.41
2022-11-09T06:24:24.070Z,99846.53
2022-11-09T06:29:46.030Z,99839.00
2022-11-09T06:35:08.491Z,99842.78
2022-11-09T06:40:30.791Z,99850.28
2022-11-09T06:45:53.112Z,99844.88
2022-11-09T06:51:14.972Z,99855.06
2022-11-09T06:56:36.890Z,99859.88
2022-11-09T07:02:01.469Z,99862.03
2022-11-09T07:07:27.953Z,99860.94
2022-11-09T07:12:50.321Z,99874.59
2022-11-09T07:18:13.670Z,99867.91
2022-11-09T07:23:35.641Z,99878.88
2022-11-09T07:28:58.311Z,99871.38
2022-11-09T07:34:20.730Z,99875.66
2022-11-09T07:39:42.636Z,99869.50
2022-11-09T07:45:04.731Z,99878.59
2022-11-09T07:50:28.017Z,99880.72
2022-11-09T07:56:02.038Z,99886.06
2022-11-09T08:01:24.710Z,99881.50
2022-11-09T08:06:46.688Z,99876.94
2022-11-09T08:12:08.809Z,99886.03
2022-11-09T08:17:30.431Z,99886.53
2022-11-09T08:22:52.851Z,99889.16
2022-11-09T08:28:17.127Z,99900.38
2022-11-09T08:33:42.458Z,99894.19
2022-11-09T08:39:04.519Z,99893.91
2022-11-09T08:44:26.550Z,99900.94
2022-11-09T08:49:49.053Z,99905.75
2022-11-09T08:55:11.570Z,99894.53
2022-11-09T09:00:34.136Z,99892.09
2022-11-09T09:05:56.489Z,99897.41
2022-11-09T09:11:18.591Z,99890.44
2022-11-09T09:16:40.546Z,99897.69
2022-11-09T09:22:03.217Z,99896.09
2022-11-09T09:27:25.089Z,99893.66
2022-11-09T09:32:47.068Z,99898.72
2022-11-09T09:38:09.471Z,99893.56
2022-11-09T09:43:46.988Z,99893.00
2022-11-09T09:49:20.589Z,99898.63
2022-11-09T09:54:48.538Z,99898.63
2022-11-09T10:00:21.367Z,99887.88
2022-11-09T10:06:15.829Z,99895.81
2022-11-09T10:11:43.928Z,99902.75
2022-11-09T10:17:05.621Z,99903.53
2022-11-09T10:22:42.240Z,99888.22
2022-11-09T10:28:13.270Z,99899.47
2022-11-09T10:33:35.591Z,99890.31
2022-11-09T10:39:03.849Z,99897.81
2022-11-09T10:44:44.690Z,99889.78
2022-11-09T10:50:40.152Z,99913.31
2022-11-09T10:56:25.155Z,99896.16
2022-11-09T11:02:27.653Z,99916.47
2022-11-09T11:08:23.939Z,99897.41
2022-11-09T11:14:29.299Z,99910.50
2022-11-09T11:20:30.550Z,99907.06
2022-11-09T11:26:32.089Z,99910.84
2022-11-09T11:32:16.768Z,99912.22
2022-11-09T11:38:32.700Z,99908.22
2022-11-09T11:44:16.389Z,99917.34
2022-11-09T11:50:08.477Z,99889.22
2022-11-09T11:56:39.489Z,99894.09
2022-11-09T12:02:26.056Z,99907.53
2022-11-09T12:08:39.830Z,99911.84
2022-11-09T12:14:37.407Z,99907.63
2022-11-09T12:20:38.243Z,99892.91
2022-11-09T12:27:05.009Z,99912.44
2022-11-09T12:33:05.349Z,99893.97
2022-11-09T12:39:18.711Z,99916.19
2022-11-09T12:45:31.608Z,99917.81
2022-11-09T12:51:12.711Z,99904.16
2022-11-09T12:56:57.912Z,99892.06
2022-11-09T13:02:55.601Z,99903.88
2022-11-09T13:09:11.528Z,99912.19
2022-11-09T13:14:56.169Z,99908.72
2022-11-09T13:20:54.882Z,99922.09
2022-11-09T13:26:40.780Z,99923.44
2022-11-09T13:32:24.640Z,99922.63
2022-11-09T13:38:09.743Z,99910.31
2022-11-09T13:44:15.463Z,99923.72
2022-11-09T13:49:56.511Z,99910.88
2022-11-09T13:55:42.409Z,99915.19
2022-11-09T14:01:46.875Z,99936.56
2022-11-09T14:07:43.530Z,99934.72
2022-11-09T14:13:38.268Z,99923.19
2022-11-09T14:19:37.528Z,99935.53
2022-11-09T14:25:24.325Z,99934.97
2022-11-09T14:31:05.568Z,99925.59
2022-11-09T14:36:46.552Z,99918.34
2022-11-09T14:42:42.135Z,99918.63
2022-11-09T14:48:34.661Z,99908.97
2022-11-09T14:54:17.592Z,99906.28
2022-11-09T14:59:58.650Z,99918.31
2022-11-09T15:05:41.501Z,99914.03
2022-11-09T15:11:32.261Z,99900.59
2022-11-09T15:17:27.900Z,99919.59
2022-11-09T15:23:42.612Z,99926.81
2022-11-09T15:29:44.925Z,99930.31
2022-11-09T15:35:28.132Z,99906.47
2022-11-09T15:41:16.771Z,99910.72
2022-11-09T15:47:02.741Z,99911.25
2022-11-09T15:52:46.011Z,99922.22
2022-11-09T15:58:29.081Z,99899.19
2022-11-09T16:04:09.890Z,99901.31
2022-11-09T16:09:50.837Z,99896.22
2022-11-09T16:15:35.243Z,99888.72
2022-11-09T16:21:18.050Z,99895.69
2022-11-09T16:27:02.392Z,99896.50
2022-11-09T16:32:54.150Z,99909.34
2022-11-09T16:38:41.061Z,99901.06
2022-11-09T16:44:24.371Z,99903.19
2022-11-09T16:50:05.991Z,99889.28
2022-11-09T16:55:54.140Z,99895.69
2022-11-09T17:01:41.499Z,99897.28
2022-11-09T17:07:22.835Z,99899.94
2022-11-09T17:13:21.415Z,99888.19
2022-11-09T17:19:20.998Z,99899.38
2022-11-09T17:31:08.810Z,99914.09
2022-11-09T17:37:07.584Z,99895.66
2022-11-09T17:42:51.181Z,99900.97
2022-11-09T17:48:37.522Z,99887.06
2022-11-09T17:54:22.042Z,99900.19
2022-11-09T18:00:02.889Z,99897.47
2022-11-09T18:05:45.531Z,99881.41
2022-11-09T18:11:45.003Z,99911.16
2022-11-09T18:17:25.660Z,99902.84
2022-11-09T18:23:06.950Z,99908.22
2022-11-09T18:28:47.313Z,99914.09
2022-11-09T18:34:28.760Z,99925.63
2022-11-09T18:40:11.910Z,99931.00
2022-11-09T18:46:02.259Z,99909.53
2022-11-09T18:51:50.822Z,99907.41
2022-11-09T18:57:40.487Z,99911.09
2022-11-09T19:03:21.712Z,99911.38
2022-11-09T19:09:24.042Z,99899.84
2022-11-09T19:15:07.300Z,99918.81
2022-11-09T19:20:49.650Z,99900.06
2022-11-09T19:26:39.720Z,99903.78
2022-11-09T19:32:23.630Z,99912.63
2022-11-09T19:38:06.496Z,99899.44
2022-11-09T19:43:56.320Z,99888.47
2022-11-09T19:49:40.900Z,99901.03
2022-11-09T19:55:30.320Z,99894.88
2022-11-09T20:01:13.082Z,99912.53
2022-11-09T20:06:59.382Z,99899.69
2022-11-09T20:12:51.670Z,99901.31
2022-11-09T20:18:40.224Z,99902.34
2022-11-09T20:24:27.492Z,99902.56
2022-11-09T20:30:10.001Z,99918.13
2022-11-09T20:35:56.864Z,99910.88
2022-11-09T20:41:38.127Z,99918.63
2022-11-09T20:47:42.345Z,99930.38
2022-11-09T20:53:32.731Z,99899.34
2022-11-09T20:59:15.871Z,99902.56
2022-11-09T21:05:00.787Z,99909.28
2022-11-09T21:10:47.869Z,99910.34
2022-11-09T21:16:32.176Z,99940.56
2022-11-09T21:22:47.070Z,99917.03
2022-11-09T21:28:46.771Z,99942.19
2022-11-09T21:34:28.736Z,99940.88
2022-11-09T21:40:12.269Z,99952.13
2022-11-09T21:45:54.471Z,99943.78
2022-11-09T21:51:36.132Z,99953.47
2022-11-09T21:57:16.548Z,99951.56
2022-11-09T22:02:57.250Z,99951.06
2022-11-09T22:08:38.989Z,99958.34
2022-11-09T22:14:39.175Z,99962.31
2022-11-09T22:20:38.260Z,99957.00
2022-11-09T22:26:19.163Z,99951.06
2022-11-09T22:31:59.268Z,99943.81
2022-11-09T22:37:39.480Z,99936.31
2022-11-09T22:43:20.520Z,99942.50
2022-11-09T22:49:01.670Z,99944.69
2022-11-09T22:54:42.290Z,99944.38
2022-11-09T23:00:22.600Z,99943.09
2022-11-09T23:06:29.743Z,99953.25
2022-11-09T23:12:10.012Z,99950.56
2022-11-09T23:18:10.988Z,99950.56
2022-11-09T23:23:52.019Z,99948.47
2022-11-09T23:29:32.139Z,99957.84
2022-11-09T23:35:12.540Z,99955.69
2022-11-09T23:40:52.728Z,99958.91
2022-11-09T23:46:32.979Z,99965.06
2022-11-09T23:52:14.347Z,99966.97
2022-11-09T23:57:57.549Z,99968.84
